sensor_id;sensor_type;location;lat;lon;timestamp;pressure;altitude;pressure_sealevel;temperature;humidity
41260;BME280;26993;48.958;9.330;2022-11-11T00:01:14;99916.94;;;5.24;100.00
41260;BME280;26993;48.958;9.330;2022-11-11T00:04:02;99930.09;;;5.14;100.00
41260;BME280;26993;48.958;9.330;2022-11-11T00:06:48;99920.31;;;5.04;100.00
41260;BME280;26993;48.958;9.330;2022-11-11T00:09:35;99923.53;;;5.19;100.00
41260;BME280;26993;48.958;9.330;2022-11-11T00:12:22;99923.19;;;5.12;100.00
41260;BME280;26993;48.958;9.330;2022-11-11T00:15:08;99923.34;;;4.95;100.00
41260;BME280;26993;48.958;9.330;2022-11-11T00:17:56;99923.66;;;5.03;100.00
41260;BME280;26993;48.958;9.330;2022-11-11T00:21:10;99929.63;;;4.84;100.00
41260;BME280;26993;48.958;9.330;2022-11-11T00:24:28;99930.91;;;4.74;100.00
41260;BME280;26993;48.958;9.330;2022-11-11T00:27:33;99926.25;;;4.65;100.00
41260;BME280;26993;48.958;9.330;2022-11-11T00:30:20;99921.22;;;4.67;100.00
41260;BME280;26993;48.958;9.330;2022-11-11T00:33:08;99930.09;;;4.75;100.00
41260;BME280;26993;48.958;9.330;2022-11-11T00:35:54;99936.84;;;4.74;100.00
41260;BME280;26993;48.958;9.330;2022-11-11T00:38:41;99935.63;;;4.66;100.00
41260;BME280;26993;48.958;9.330;2022-11-11T00:41:31;99939.66;;;4.61;100.00
41260;BME280;26993;48.958;9.330;2022-11-11T00:44:17;99938.13;;;4.65;100.00
41260;BME280;26993;48.958;9.330;2022-11-11T00:47:04;99943.75;;;4.57;100.00
41260;BME280;26993;48.958;9.330;2022-11-11T00:50:12;99955.00;;;4.43;100.00
41260;BME280;26993;48.958;9.330;2022-11-11T00:53:18;99957.81;;;4.49;100.00
41260;BME280;26993;48.958;9.330;2022-11-11T00:56:05;99954.69;;;4.55;100.00
41260;BME280;26993;48.958;9.330;2022-11-11T00:58:52;99959.38;;;4.45;100.00
41260;BME280;26993;48.958;9.330;2022-11-11T01:01:38;99959.13;;;4.41;100.00
41260;BME280;26993;48.958;9.330;2022-11-11T01:04:25;99952.44;;;4.43;100.00
41260;BME280;26993;48.958;9.330;2022-11-11T01:07:13;99949.22;;;4.47;100.00
41260;BME280;26993;48.958;9.330;2022-11-11T01:10:00;99954.41;;;4.31;100.00
41260;BME280;26993;48.958;9.330;2022-11-11T01:12:46;99949.88;;;4.43;100.00
41260;BME280;26993;48.958;9.330;2022-11-11T01:15:33;99943.31;;;4.30;100.00
41260;BME280;26993;48.958;9.330;2022-11-11T01:18:22;99942.59;;;4.33;100.00
41260;BME280;26993;48.958;9.330;2022-11-11T01:21:12;99943.75;;;4.39;100.00
41260;BME280;26993;48.958;9.330;2022-11-11T01:24:01;99944.22;;;4.31;100.00
41260;BME280;26993;48.958;9.330;2022-11-11T01:26:47;99947.78;;;4.34;100.00
41260;BME280;26993;48.958;9.330;2022-11-11T01:29:34;99958.72;;;4.32;100.00
41260;BME280;26993;48.958;9.330;2022-11-11T01:32:21;99962.66;;;4.25;100.00
41260;BME280;26993;48.958;9.330;2022-11-11T01:35:08;99969.38;;;4.06;100.00
41260;BME280;26993;48.958;9.330;2022-11-11T01:37:56;99966.94;;;4.08;100.00
41260;BME280;26993;48.958;9.330;2022-11-11T01:40:46;99963.00;;;4.15;100.00
41260;BME280;26993;48.958;9.330;2022-11-11T01:43:34;99960.59;;;4.00;100.00
41260;BME280;26993;48.958;9.330;2022-11-11T01:46:29;99959.06;;;4.03;100.00
41260;BME280;26993;48.958;9.330;2022-11-11T01:49:28;99958.00;;;3.81;100.00
41260;BME280;26993;48.958;9.330;2022-11-11T01:52:19;99957.28;;;3.84;100.00
41260;BME280;26993;48.958;9.330;2022-11-11T01:55:10;99952.25;;;3.86;100.00
41260;BME280;26993;48.958;9.330;2022-11-11T01:58:02;99960.25;;;3.75;100.00
41260;BME280;26993;48.958;9.330;2022-11-11T02:00:50;99960.56;;;3.65;100.00
41260;BME280;26993;48.958;9.330;2022-11-11T02:03:39;99965.84;;;3.52;100.00
41260;BME280;26993;48.958;9.330;2022-11-11T02:06:27;99970.00;;;3.49;100.00
41260;BME280;26993;48.958;9.330;2022-11-11T02:09:13;99975.25;;;3.53;100.00
41260;BME280;26993;48.958;9.330;2022-11-11T02:12:03;99968.72;;;3.58;100.00
41260;BME280;26993;48.958;9.330;2022-11-11T02:15:11;99975.31;;;3.54;100.00
41260;BME280;26993;48.958;9.330;2022-11-11T02:17:58;99967.44;;;3.66;100.00
41260;BME280;26993;48.958;9.330;2022-11-11T02:20:45;99970.66;;;3.80;100.00
41260;BME280;26993;48.958;9.330;2022-11-11T02:23:36;99967.00;;;3.75;100.00
41260;BME280;26993;48.958;9.330;2022-11-11T02:26:26;99976.53;;;3.61;100.00
41260;BME280;26993;48.958;9.330;2022-11-11T02:29:15;99973.38;;;3.83;100.00
41260;BME280;26993;48.958;9.330;2022-11-11T02:32:03;99965.00;;;3.86;100.00
41260;BME280;26993;48.958;9.330;2022-11-11T02:34:50;99962.03;;;3.94;100.00
41260;BME280;26993;48.958;9.330;2022-11-11T02:37:37;99958.81;;;3.99;100.00
41260;BME280;26993;48.958;9.330;2022-11-11T02:40:26;99963.97;;;3.82;100.00
41260;BME280;26993;48.958;9.330;2022-11-11T02:43:16;99965.56;;;3.80;100.00
41260;BME280;26993;48.958;9.330;2022-11-11T02:46:05;99969.25;;;3.69;100.00
41260;BME280;26993;48.958;9.330;2022-11-11T02:48:52;99961.69;;;3.70;100.00
41260;BME280;26993;48.958;9.330;2022-11-11T02:51:38;99961.66;;;3.87;100.00
41260;BME280;26993;48.958;9.330;2022-11-11T02:54:25;99953.13;;;3.86;100.00
41260;BME280;26993;48.958;9.330;2022-11-11T02:57:12;99956.19;;;3.79;100.00
41260;BME280;26993;48.958;9.330;2022-11-11T03:00:00;99954.19;;;3.73;100.00
41260;BME280;26993;48.958;9.330;2022-11-11T03:02:47;99949.66;;;3.68;100.00
41260;BME280;26993;48.958;9.330;2022-11-11T03:05:34;99949.53;;;3.64;100.00
41260;BME280;26993;48.958;9.330;2022-11-11T03:08:20;99945.03;;;3.77;100.00
41260;BME280;26993;48.958;9.330;2022-11-11T03:11:07;99939.19;;;3.79;100.00
41260;BME280;26993;48.958;9.330;2022-11-11T03:13:53;99941.91;;;3.83;100.00
41260;BME280;26993;48.958;9.330;2022-11-11T03:16:41;99944.75;;;3.89;100.00
41260;BME280;26993;48.958;9.330;2022-11-11T03:19:45;99944.59;;;3.86;100.00
41260;BME280;26993;48.958;9.330;2022-11-11T03:22:32;99947.53;;;3.93;100.00
41260;BME280;26993;48.958;9.330;2022-11-11T03:25:18;99943.31;;;3.94;100.00
41260;BME280;26993;48.958;9.330;2022-11-11T03:28:22;99935.66;;;4.30;100.00
41260;BME280;26993;48.958;9.330;2022-11-11T03:31:09;99938.50;;;4.36;100.00
41260;BME280;26993;48.958;9.330;2022-11-11T03:33:57;99935.59;;;4.28;100.00
41260;BME280;26993;48.958;9.330;2022-11-11T03:37:03;99935.03;;;4.16;100.00
41260;BME280;26993;48.958;9.330;2022-11-11T03:40:08;99954.28;;;3.93;100.00
41260;BME280;26993;48.958;9.330;2022-11-11T03:42:55;99965.22;;;3.90;100.00
41260;BME280;26993;48.958;9.330;2022-11-11T03:45:42;99955.22;;;3.77;100.00
41260;BME280;26993;48.958;9.330;2022-11-11T03:48:31;99963.09;;;3.81;100.00
41260;BME280;26993;48.958;9.330;2022-11-11T03:51:19;99971.97;;;3.72;100.00
41260;BME280;26993;48.958;9.330;2022-11-11T03:54:06;99980.31;;;3.69;100.00
41260;BME280;26993;48.958;9.330;2022-11-11T03:56:53;99975.16;;;3.68;100.00
41260;BME280;26993;48.958;9.330;2022-11-11T04:00:03;99978.91;;;3.58;100.00
41260;BME280;26993;48.958;9.330;2022-11-11T04:02:50;99979.09;;;3.44;100.00
41260;BME280;26993;48.958;9.330;2022-11-11T04:05:54;99977.47;;;3.46;100.00
41260;BME280;26993;48.958;9.330;2022-11-11T04:09:00;99971.31;;;3.76;100.00
41260;BME280;26993;48.958;9.330;2022-11-11T04:12:04;99968.94;;;3.62;100.00
41260;BME280;26993;48.958;9.330;2022-11-11T04:14:50;99971.03;;;3.53;100.00
41260;BME280;26993;48.958;9.330;2022-11-11T04:17:54;99974.91;;;3.63;100.00
41260;BME280;26993;48.958;9.330;2022-11-11T04:20:42;99975.31;;;3.54;100.00
41260;BME280;26993;48.958;9.330;2022-11-11T04:23:46;99969.94;;;3.48;100.00
41260;BME280;26993;48.958;9.330;2022-11-11T04:26:34;99970.97;;;3.52;100.00
41260;BME280;26993;48.958;9.330;2022-11-11T04:29:20;99968.22;;;3.32;100.00
41260;BME280;26993;48.958;9.330;2022-11-11T04:32:17;99966.03;;;3.38;100.00
41260;BME280;26993;48.958;9.330;2022-11-11T04:35:22;99971.81;;;3.36;100.00
41260;BME280;26993;48.958;9.330;2022-11-11T04:38:10;99980.00;;;3.46;100.00
41260;BME280;26993;48.958;9.330;2022-11-11T04:41:14;99983.75;;;3.53;100.00
41260;BME280;26993;48.958;9.330;2022-11-11T04:44:02;99987.03;;;3.67;100.00
41260;BME280;26993;48.958;9.330;2022-11-11T04:47:06;99992.66;;;3.78;100.00
41260;BME280;26993;48.958;9.330;2022-11-11T04:49:53;100000.00;;;3.72;100.00
41260;BME280;26993;48.958;9.330;2022-11-11T04:52:39;100007.47;;;3.69;100.00
41260;BME280;26993;48.958;9.330;2022-11-11T04:55:28;100008.19;;;3.83;100.00
41260;BME280;26993;48.958;9.330;2022-11-11T04:58:33;100010.28;;;3.73;100.00
41260;BME280;26993;48.958;9.330;2022-11-11T05:01:21;100013.13;;;3.79;100.00
41260;BME280;26993;48.958;9.330;2022-11-11T05:04:22;100021.00;;;3.84;100.00
41260;BME280;26993;48.958;9.330;2022-11-11T05:07:08;100024.84;;;3.76;100.00
41260;BME280;26993;48.958;9.330;2022-11-11T05:10:13;100039.00;;;3.87;100.00
41260;BME280;26993;48.958;9.330;2022-11-11T05:12:59;100038.25;;;3.72;100.00
41260;BME280;26993;48.958;9.330;2022-11-11T05:16:03;100032.13;;;3.68;100.00
41260;BME280;26993;48.958;9.330;2022-11-11T05:19:11;100039.19;;;3.74;100.00
41260;BME280;26993;48.958;9.330;2022-11-11T05:22:20;100041.75;;;3.57;100.00
41260;BME280;26993;48.958;9.330;2022-11-11T05:25:09;100039.75;;;3.52;100.00
41260;BME280;26993;48.958;9.330;2022-11-11T05:28:10;100041.16;;;3.46;100.00
41260;BME280;26993;48.958;9.330;2022-11-11T05:30:56;100036.78;;;3.44;100.00
41260;BME280;26993;48.958;9.330;2022-11-11T05:33:43;100038.94;;;3.36;100.00
41260;BME280;26993;48.958;9.330;2022-11-11T05:36:31;100041.56;;;3.38;100.00
41260;BME280;26993;48.958;9.330;2022-11-11T05:39:18;100034.88;;;3.40;100.00
41260;BME280;26993;48.958;9.330;2022-11-11T05:42:04;100040.13;;;3.26;100.00
41260;BME280;26993;48.958;9.330;2022-11-11T05:44:51;100042.00;;;3.45;100.00
41260;BME280;26993;48.958;9.330;2022-11-11T05:47:38;100053.13;;;3.64;100.00
41260;BME280;26993;48.958;9.330;2022-11-11T05:50:24;100062.44;;;3.47;100.00
41260;BME280;26993;48.958;9.330;2022-11-11T05:53:12;100073.84;;;3.54;100.00
41260;BME280;26993;48.958;9.330;2022-11-11T05:55:59;100070.72;;;3.59;100.00
41260;BME280;26993;48.958;9.330;2022-11-11T05:58:46;100077.50;;;3.59;100.00
41260;BME280;26993;48.958;9.330;2022-11-11T06:01:33;100069.44;;;3.68;100.00
41260;BME280;26993;48.958;9.330;2022-11-11T06:04:20;100075.81;;;3.76;100.00
41260;BME280;26993;48.958;9.330;2022-11-11T06:07:07;100080.69;;;3.71;100.00
41260;BME280;26993;48.958;9.330;2022-11-11T06:09:55;100081.97;;;3.79;100.00
41260;BME280;26993;48.958;9.330;2022-11-11T06:13:01;100088.88;;;3.82;100.00
41260;BME280;26993;48.958;9.330;2022-11-11T06:15:49;100094.63;;;3.78;100.00
41260;BME280;26993;48.958;9.330;2022-11-11T06:18:36;100098.44;;;3.70;100.00
41260;BME280;26993;48.958;9.330;2022-11-11T06:21:22;100100.69;;;3.63;100.00
41260;BME280;26993;48.958;9.330;2022-11-11T06:24:09;100110.94;;;3.48;100.00
41260;BME280;26993;48.958;9.330;2022-11-11T06:26:57;100108.44;;;3.50;100.00
41260;BME280;26993;48.958;9.330;2022-11-11T06:29:44;100101.75;;;3.36;100.00
41260;BME280;26993;48.958;9.330;2022-11-11T06:32:30;100109.63;;;3.40;100.00
41260;BME280;26993;48.958;9.330;2022-11-11T06:35:17;100111.31;;;3.40;100.00
41260;BME280;26993;48.958;9.330;2022-11-11T06:38:05;100112.50;;;3.46;100.00
41260;BME280;26993;48.958;9.330;2022-11-11T06:40:52;100114.84;;;3.42;100.00
41260;BME280;26993;48.958;9.330;2022-11-11T06:43:41;100116.94;;;3.34;100.00
41260;BME280;26993;48.958;9.330;2022-11-11T06:46:28;100114.09;;;3.28;100.00
41260;BME280;26993;48.958;9.330;2022-11-11T06:49:14;100112.75;;;3.35;100.00
41260;BME280;26993;48.958;9.330;2022-11-11T06:52:01;100121.34;;;3.37;100.00
41260;BME280;26993;48.958;9.330;2022-11-11T06:54:48;100120.00;;;3.43;100.00
41260;BME280;26993;48.958;9.330;2022-11-11T06:57:34;100115.22;;;3.49;100.00
41260;BME280;26993;48.958;9.330;2022-11-11T07:00:22;100111.59;;;3.61;100.00
41260;BME280;26993;48.958;9.330;2022-11-11T07:03:11;100111.19;;;3.70;100.00
41260;BME280;26993;48.958;9.330;2022-11-11T07:05:59;100110.56;;;3.74;100.00
41260;BME280;26993;48.958;9.330;2022-11-11T07:08:46;100114.31;;;3.80;100.00
41260;BME280;26993;48.958;9.330;2022-11-11T07:11:33;100120.94;;;3.93;100.00
41260;BME280;26993;48.958;9.330;2022-11-11T07:14:19;100120.03;;;3.93;100.00
41260;BME280;26993;48.958;9.330;2022-11-11T07:17:07;100120.94;;;3.93;100.00
41260;BME280;26993;48.958;9.330;2022-11-11T07:19:54;100123.72;;;3.98;100.00
41260;BME280;26993;48.958;9.330;2022-11-11T07:22:41;100124.47;;;4.13;100.00
41260;BME280;26993;48.958;9.330;2022-11-11T07:25:27;100126.34;;;4.16;100.00
41260;BME280;26993;48.958;9.330;2022-11-11T07:28:14;100119.72;;;4.20;100.00
41260;BME280;26993;48.958;9.330;2022-11-11T07:31:01;100127.97;;;4.32;100.00
41260;BME280;26993;48.958;9.330;2022-11-11T07:33:49;100128.28;;;4.38;100.00
41260;BME280;26993;48.958;9.330;2022-11-11T07:36:35;100129.63;;;4.48;100.00
41260;BME280;26993;48.958;9.330;2022-11-11T07:39:22;100133.38;;;4.38;100.00
41260;BME280;26993;48.958;9.330;2022-11-11T07:42:09;100131.56;;;4.36;100.00
41260;BME280;26993;48.958;9.330;2022-11-11T07:44:56;100129.63;;;4.48;100.00
41260;BME280;26993;48.958;9.330;2022-11-11T07:47:43;100126.66;;;4.57;100.00
41260;BME280;26993;48.958;9.330;2022-11-11T07:50:31;100126.41;;;4.69;100.00
41260;BME280;26993;48.958;9.330;2022-11-11T07:53:18;100132.16;;;4.83;100.00
41260;BME280;26993;48.958;9.330;2022-11-11T07:56:05;100127.44;;;4.90;100.00
41260;BME280;26993;48.958;9.330;2022-11-11T07:58:52;100124.22;;;5.13;100.00
41260;BME280;26993;48.958;9.330;2022-11-11T08:01:38;100121.41;;;5.26;100.00
41260;BME280;26993;48.958;9.330;2022-11-11T08:04:25;100117.75;;;5.39;100.00
41260;BME280;26993;48.958;9.330;2022-11-11T08:07:13;100121.00;;;5.54;100.00
41260;BME280;26993;48.958;9.330;2022-11-11T08:09:59;100115.03;;;5.54;100.00
41260;BME280;26993;48.958;9.330;2022-11-11T08:12:52;100113.69;;;5.62;100.00
41260;BME280;26993;48.958;9.330;2022-11-11T08:15:56;100110.00;;;5.75;100.00
41260;BME280;26993;48.958;9.330;2022-11-11T08:18:43;100117.66;;;5.75;100.00
41260;BME280;26993;48.958;9.330;2022-11-11T08:21:30;100123.13;;;5.83;100.00
41260;BME280;26993;48.958;9.330;2022-11-11T08:24:18;100116.06;;;5.97;100.00
41260;BME280;26993;48.958;9.330;2022-11-11T08:27:05;100122.56;;;6.08;100.00
41260;BME280;26993;48.958;9.330;2022-11-11T08:29:52;100118.09;;;6.24;100.00
41260;BME280;26993;48.958;9.330;2022-11-11T08:32:38;100116.84;;;6.35;100.00
41260;BME280;26993;48.958;9.330;2022-11-11T08:35:25;100122.56;;;6.49;100.00
41260;BME280;26993;48.958;9.330;2022-11-11T08:38:12;100124.63;;;6.58;100.00
41260;BME280;26993;48.958;9.330;2022-11-11T08:41:01;100125.56;;;6.60;100.00
41260;BME280;26993;48.958;9.330;2022-11-11T08:43:51;100128.25;;;6.63;100.00
41260;BME280;26993;48.958;9.330;2022-11-11T08:46:38;100133.31;;;6.82;100.00
41260;BME280;26993;48.958;9.330;2022-11-11T08:49:25;100135.63;;;6.97;100.00
41260;BME280;26993;48.958;9.330;2022-11-11T08:52:11;100128.84;;;7.21;100.00
41260;BME280;26993;48.958;9.330;2022-11-11T08:54:58;100124.94;;;7.30;100.00
41260;BME280;26993;48.958;9.330;2022-11-11T08:57:46;100130.53;;;7.43;100.00
41260;BME280;26993;48.958;9.330;2022-11-11T09:00:33;100125.00;;;7.55;100.00
41260;BME280;26993;48.958;9.330;2022-11-11T09:03:20;100113.63;;;7.95;100.00
41260;BME280;26993;48.958;9.330;2022-11-11T09:06:07;100119.25;;;8.09;100.00
41260;BME280;26993;48.958;9.330;2022-11-11T09:08:54;100121.56;;;8.27;100.00
41260;BME280;26993;48.958;9.330;2022-11-11T09:11:40;100114.59;;;8.47;100.00
41260;BME280;26993;48.958;9.330;2022-11-11T09:14:29;100114.84;;;8.31;100.00
41260;BME280;26993;48.958;9.330;2022-11-11T09:17:16;100112.22;;;8.53;100.00
41260;BME280;26993;48.958;9.330;2022-11-11T09:20:03;100109.34;;;8.44;100.00
41260;BME280;26993;48.958;9.330;2022-11-11T09:22:51;100108.06;;;8.57;100.00
41260;BME280;26993;48.958;9.330;2022-11-11T09:25:38;100100.34;;;8.57;100.00
41260;BME280;26993;48.958;9.330;2022-11-11T09:28:25;100109.50;;;8.75;100.00
41260;BME280;26993;48.958;9.330;2022-11-11T09:31:13;100100.88;;;9.00;100.00
41260;BME280;26993;48.958;9.330;2022-11-11T09:33:59;100105.06;;;8.98;100.00
41260;BME280;26993;48.958;9.330;2022-11-11T09:36:46;100092.50;;;9.07;99.21
41260;BME280;26993;48.958;9.330;2022-11-11T09:39:34;100098.41;;;9.03;99.22
41260;BME280;26993;48.958;9.330;2022-11-11T09:42:32;100103.72;;;9.09;99.12
41260;BME280;26993;48.958;9.330;2022-11-11T09:45:26;100097.84;;;9.13;97.52
41260;BME280;26993;48.958;9.330;2022-11-11T09:48:40;100102.47;;;9.25;96.01
41260;BME280;26993;48.958;9.330;2022-11-11T09:51:41;100104.38;;;9.31;96.38
41260;BME280;26993;48.958;9.330;2022-11-11T09:54:33;100099.34;;;9.34;96.54
41260;BME280;26993;48.958;9.330;2022-11-11T09:57:33;100096.28;;;9.47;97.37
41260;BME280;26993;48.958;9.330;2022-11-11T10:00:24;100091.72;;;9.67;95.16
41260;BME280;26993;48.958;9.330;2022-11-11T10:03:16;100098.00;;;9.77;95.92
41260;BME280;26993;48.958;9.330;2022-11-11T10:06:08;100092.47;;;9.94;97.45
41260;BME280;26993;48.958;9.330;2022-11-11T10:08:57;100094.53;;;10.07;97.63
41260;BME280;26993;48.958;9.330;2022-11-11T10:11:52;100093.19;;;10.22;96.16
41260;BME280;26993;48.958;9.330;2022-11-11T10:14:45;100089.84;;;10.26;96.26
41260;BME280;26993;48.958;9.330;2022-11-11T10:17:39;100092.75;;;10.05;96.28
41260;BME280;26993;48.958;9.330;2022-11-11T10:20:34;100096.59;;;9.89;97.76
41260;BME280;26993;48.958;9.330;2022-11-11T10:23:28;100088.75;;;10.16;97.11
41260;BME280;26993;48.958;9.330;2022-11-11T10:26:18;100092.72;;;10.37;93.47
41260;BME280;26993;48.958;9.330;2022-11-11T10:29:09;100096.25;;;10.40;91.71
41260;BME280;26993;48.958;9.330;2022-11-11T10:32:02;100084.16;;;10.38;92.44
41260;BME280;26993;48.958;9.330;2022-11-11T10:34:50;100086.44;;;10.60;91.32
41260;BME280;26993;48.958;9.330;2022-11-11T10:37:39;100085.06;;;10.75;91.91
41260;BME280;26993;48.958;9.330;2022-11-11T10:40:34;100086.38;;;10.94;91.52
41260;BME280;26993;48.958;9.330;2022-11-11T10:43:24;100075.94;;;10.88;89.42
41260;BME280;26993;48.958;9.330;2022-11-11T10:46:15;100089.41;;;11.13;90.66
41260;BME280;26993;48.958;9.330;2022-11-11T10:49:05;100073.13;;;11.17;90.91
41260;BME280;26993;48.958;9.330;2022-11-11T10:52:01;100070.56;;;11.17;90.79
41260;BME280;26993;48.958;9.330;2022-11-11T10:54:53;100067.50;;;11.35;90.28
41260;BME280;26993;48.958;9.330;2022-11-11T10:57:47;100057.88;;;11.27;89.65
41260;BME280;26993;48.958;9.330;2022-11-11T11:00:38;100057.25;;;11.38;90.08
41260;BME280;26993;48.958;9.330;2022-11-11T11:03:29;100061.53;;;11.37;91.03
41260;BME280;26993;48.958;9.330;2022-11-11T11:06:21;100054.69;;;11.39;90.52
41260;BME280;26993;48.958;9.330;2022-11-11T11:09:14;100051.28;;;11.40;87.99
41260;BME280;26993;48.958;9.330;2022-11-11T11:12:06;100041.81;;;11.41;88.69
41260;BME280;26993;48.958;9.330;2022-11-11T11:15:03;100040.94;;;11.39;89.56
41260;BME280;26993;48.958;9.330;2022-11-11T11:17:55;100040.28;;;11.49;90.14
41260;BME280;26993;48.958;9.330;2022-11-11T11:20:55;100043.53;;;11.40;89.49
41260;BME280;26993;48.958;9.330;2022-11-11T11:23:43;100031.63;;;11.47;89.56
41260;BME280;26993;48.958;9.330;2022-11-11T11:26:42;100038.72;;;11.59;88.88
41260;BME280;26993;48.958;9.330;2022-11-11T11:29:31;100035.44;;;11.66;90.01
41260;BME280;26993;48.958;9.330;2022-11-11T11:32:26;100037.38;;;11.78;88.93
41260;BME280;26993;48.958;9.330;2022-11-11T11:35:29;100038.41;;;11.86;87.17
41260;BME280;26993;48.958;9.330;2022-11-11T11:38:17;100042.84;;;11.95;86.17
41260;BME280;26993;48.958;9.330;2022-11-11T11:41:04;100051.75;;;12.08;86.21
41260;BME280;26993;48.958;9.330;2022-11-11T11:43:51;100045.69;;;12.06;85.96
41260;BME280;26993;48.958;9.330;2022-11-11T11:46:39;100040.22;;;11.92;86.14
41260;BME280;26993;48.958;9.330;2022-11-11T11:49:44;100044.97;;;12.13;86.14
41260;BME280;26993;48.958;9.330;2022-11-11T11:52:37;100044.13;;;12.16;86.04
41260;BME280;26993;48.958;9.330;2022-11-11T11:55:31;100039.41;;;12.42;87.40
41260;BME280;26993;48.958;9.330;2022-11-11T11:58:28;100035.44;;;12.64;83.45
41260;BME280;26993;48.958;9.330;2022-11-11T12:01:23;100033.81;;;12.71;83.52
41260;BME280;26993;48.958;9.330;2022-11-11T12:04:44;100033.25;;;12.91;83.97
41260;BME280;26993;48.958;9.330;2022-11-11T12:08:01;100029.88;;;12.95;83.60
41260;BME280;26993;48.958;9.330;2022-11-11T12:10:55;100035.31;;;13.16;83.00
41260;BME280;26993;48.958;9.330;2022-11-11T12:14:09;100035.06;;;12.99;83.66
41260;BME280;26993;48.958;9.330;2022-11-11T12:17:10;100038.16;;;12.72;84.36
41260;BME280;26993;48.958;9.330;2022-11-11T12:20:10;100027.34;;;13.01;83.45
41260;BME280;26993;48.958;9.330;2022-11-11T12:23:12;100024.78;;;13.01;83.06
41260;BME280;26993;48.958;9.330;2022-11-11T12:26:07;100032.69;;;13.13;83.36
41260;BME280;26993;48.958;9.330;2022-11-11T12:29:06;100020.91;;;13.37;82.12
41260;BME280;26993;48.958;9.330;2022-11-11T12:32:06;100029.53;;;13.35;82.27
41260;BME280;26993;48.958;9.330;2022-11-11T12:35:19;100019.13;;;13.31;81.90
41260;BME280;26993;48.958;9.330;2022-11-11T12:38:20;100019.31;;;13.45;80.16
41260;BME280;26993;48.958;9.330;2022-11-11T12:41:22;100015.66;;;13.31;80.60
41260;BME280;26993;48.958;9.330;2022-11-11T12:44:12;100017.44;;;13.35;81.61
41260;BME280;26993;48.958;9.330;2022-11-11T12:47:18;100012.19;;;13.29;80.98
41260;BME280;26993;48.958;9.330;2022-11-11T12:50:19;100011.41;;;13.38;81.29
41260;BME280;26993;48.958;9.330;2022-11-11T12:53:20;100004.56;;;13.38;81.73
41260;BME280;26993;48.958;9.330;2022-11-11T12:56:20;100005.38;;;13.37;81.97
41260;BME280;26993;48.958;9.330;2022-11-11T12:59:16;99998.41;;;13.30;82.53
41260;BME280;26993;48.958;9.330;2022-11-11T13:02:19;99995.03;;;13.36;82.91
41260;BME280;26993;48.958;9.330;2022-11-11T13:05:19;99996.03;;;13.45;82.18
41260;BME280;26993;48.958;9.330;2022-11-11T13:08:22;100003.03;;;13.56;81.82
41260;BME280;26993;48.958;9.330;2022-11-11T13:11:16;99998.00;;;13.71;81.36
41260;BME280;26993;48.958;9.330;2022-11-11T13:14:22;99994.53;;;13.68;81.39
41260;BME280;26993;48.958;9.330;2022-11-11T13:17:13;99997.03;;;13.58;81.76
41260;BME280;26993;48.958;9.330;2022-11-11T13:20:03;99995.03;;;13.37;80.90
41260;BME280;26993;48.958;9.330;2022-11-11T13:22:53;99995.97;;;13.39;81.66
41260;BME280;26993;48.958;9.330;2022-11-11T13:25:44;99988.94;;;13.32;82.00
41260;BME280;26993;48.958;9.330;2022-11-11T13:28:36;99988.06;;;13.33;82.44
41260;BME280;26993;48.958;9.330;2022-11-11T13:31:30;99990.69;;;13.35;83.48
41260;BME280;26993;48.958;9.330;2022-11-11T13:34:19;99986.28;;;13.27;83.83
41260;BME280;26993;48.958;9.330;2022-11-11T13:37:16;99981.00;;;13.16;84.40
41260;BME280;26993;48.958;9.330;2022-11-11T13:40:23;99984.31;;;13.08;84.90
41260;BME280;26993;48.958;9.330;2022-11-11T13:43:18;99986.09;;;13.13;85.23
41260;BME280;26993;48.958;9.330;2022-11-11T13:46:06;99981.94;;;13.25;84.30
41260;BME280;26993;48.958;9.330;2022-11-11T13:49:20;99988.97;;;13.35;81.95
41260;BME280;26993;48.958;9.330;2022-11-11T13:52:19;99992.31;;;13.26;82.68
41260;BME280;26993;48.958;9.330;2022-11-11T13:55:22;99989.59;;;13.17;84.22
41260;BME280;26993;48.958;9.330;2022-11-11T13:58:20;99990.44;;;13.16;85.23
41260;BME280;26993;48.958;9.330;2022-11-11T14:01:10;99993.03;;;13.16;86.46
41260;BME280;26993;48.958;9.330;2022-11-11T14:04:02;99993.16;;;13.27;85.96
41260;BME280;26993;48.958;9.330;2022-11-11T14:06:53;100001.72;;;13.20;85.46
41260;BME280;26993;48.958;9.330;2022-11-11T14:09:54;100006.88;;;13.20;85.92
41260;BME280;26993;48.958;9.330;2022-11-11T14:12:44;99996.66;;;13.29;86.67
41260;BME280;26993;48.958;9.330;2022-11-11T14:15:40;100000.00;;;13.20;87.53
41260;BME280;26993;48.958;9.330;2022-11-11T14:18:39;99994.72;;;13.11;87.81
41260;BME280;26993;48.958;9.330;2022-11-11T14:21:42;99998.06;;;13.02;87.98
41260;BME280;26993;48.958;9.330;2022-11-11T14:24:35;100002.47;;;13.12;84.53
41260;BME280;26993;48.958;9.330;2022-11-11T14:27:26;100012.69;;;13.01;85.11
41260;BME280;26993;48.958;9.330;2022-11-11T14:30:35;100007.50;;;13.01;85.51
41260;BME280;26993;48.958;9.330;2022-11-11T14:33:33;99999.75;;;13.01;86.16
41260;BME280;26993;48.958;9.330;2022-11-11T14:36:30;100004.91;;;13.00;86.47
41260;BME280;26993;48.958;9.330;2022-11-11T14:39:30;100005.75;;;12.99;86.22
41260;BME280;26993;48.958;9.330;2022-11-11T14:42:42;100002.31;;;13.00;85.52
41260;BME280;26993;48.958;9.330;2022-11-11T14:48:58;100000.44;;;12.90;87.99
41260;BME280;26993;48.958;9.330;2022-11-11T14:51:56;99993.22;;;12.64;88.33
41260;BME280;26993;48.958;9.330;2022-11-11T14:55:09;99993.22;;;12.64;88.02
41260;BME280;26993;48.958;9.330;2022-11-11T14:57:59;100000.06;;;12.62;88.29
41260;BME280;26993;48.958;9.330;2022-11-11T15:00:55;100005.81;;;12.42;90.22
41260;BME280;26993;48.958;9.330;2022-11-11T15:03:46;100003.22;;;12.42;91.56
41260;BME280;26993;48.958;9.330;2022-11-11T15:06:41;100002.34;;;12.42;89.94
41260;BME280;26993;48.958;9.330;2022-11-11T15:09:55;100009.81;;;12.25;90.42